Главная страница
METAR-TAF:

METAR-TAF

Аэропорты :

Вестерланд, Германия

широта: 54-55N, долгота: 008-21E, высота над уровнем моря: 16 м

Текущие метеонаблюдения

Эта сводка был подготовлена 39 минут назад, в 14:50 UTC
Ветер 15 Узел от восточный
Температура 6°C
Влажность 100%
Давление 1007 hPa
Видимость: 6000 м
Сплошная облачность на высоте 1100 фута

METAR: EDXW 151450Z 09015KT 6000 OVC011 06/06 Q1007

Время: 16:29 (15:29 UTC)

Прогноз

Эта сводка был подготовлена 1 час и 29 минут назад, в 14:00 UTC
Прогноз действительный с 15-го 15 UTC до 15-го 18 UTC
Ветер 15 Узел от восточный с порывами до 25 Узел
Видимость: 9000 м
Сплошная облачность на высоте 1200 фута

TAF: EDXW 151400Z 1515/1518 08015G25KT 9000 OVC012

Метеонаблюдения и прогнозы для более 4000 аэропортов (сводки METAR и TAF).

Имеющиеся станции представлены на карте желтыми и красными точками.

Чтобы увидеть название станции, наведите на нее мышь.

Затем щелкните, чтобы увидеть метеонаблюдения и метеопрогнозы.

Управление картой: чтобы увеличить масштаб, щелкните зеленые кнопки с черным крестиком; чтобы уменьшить масштаб, щелкните зеленую кнопку с тире; для просмотра соседних карт щелкайте зеленые стрелки.


METAR-TAF: